sensor_id;sensor_type;location;lat;lon;timestamp;temperature;humidity
34542;DHT22;20784;51.332;12.410;2023-03-14T00:01:28;11.70;99.90
34542;DHT22;20784;51.332;12.410;2023-03-14T00:03:57;11.80;99.90
34542;DHT22;20784;51.332;12.410;2023-03-14T00:06:28;11.80;99.90
34542;DHT22;20784;51.332;12.410;2023-03-14T00:11:50;11.70;99.90
34542;DHT22;20784;51.332;12.410;2023-03-14T00:14:23;11.70;99.90
34542;DHT22;20784;51.332;12.410;2023-03-14T00:17:03;11.70;99.90
34542;DHT22;20784;51.332;12.410;2023-03-14T00:19:31;11.60;99.90
34542;DHT22;20784;51.332;12.410;2023-03-14T00:21:57;11.70;99.90
34542;DHT22;20784;51.332;12.410;2023-03-14T00:24:28;11.60;99.90
34542;DHT22;20784;51.332;12.410;2023-03-14T00:29:32;11.60;99.90
34542;DHT22;20784;51.332;12.410;2023-03-14T00:32:00;11.60;99.90
34542;DHT22;20784;51.332;12.410;2023-03-14T00:34:33;11.60;99.90
34542;DHT22;20784;51.332;12.410;2023-03-14T00:37:01;11.60;99.90
34542;DHT22;20784;51.332;12.410;2023-03-14T00:39:32;11.70;99.90
34542;DHT22;20784;51.332;12.410;2023-03-14T00:42:01;11.60;99.90
34542;DHT22;20784;51.332;12.410;2023-03-14T00:44:26;11.70;99.90
34542;DHT22;20784;51.332;12.410;2023-03-14T00:46:55;11.70;99.90
34542;DHT22;20784;51.332;12.410;2023-03-14T00:49:23;11.70;99.90
34542;DHT22;20784;51.332;12.410;2023-03-14T00:51:49;11.70;99.90
34542;DHT22;20784;51.332;12.410;2023-03-14T00:54:18;11.70;99.90
34542;DHT22;20784;51.332;12.410;2023-03-14T00:56:44;11.70;99.90
34542;DHT22;20784;51.332;12.410;2023-03-14T00:59:12;11.70;99.90
34542;DHT22;20784;51.332;12.410;2023-03-14T01:01:39;11.80;99.90
34542;DHT22;20784;51.332;12.410;2023-03-14T01:04:07;11.70;99.90
34542;DHT22;20784;51.332;12.410;2023-03-14T01:06:33;11.70;99.90
34542;DHT22;20784;51.332;12.410;2023-03-14T01:08:59;11.70;99.90
34542;DHT22;20784;51.332;12.410;2023-03-14T01:11:31;11.80;99.90
34542;DHT22;20784;51.332;12.410;2023-03-14T01:13:58;11.80;99.90
34542;DHT22;20784;51.332;12.410;2023-03-14T01:16:26;11.80;99.90
34542;DHT22;20784;51.332;12.410;2023-03-14T01:18:54;11.90;99.90
34542;DHT22;20784;51.332;12.410;2023-03-14T01:21:25;11.70;99.90
34542;DHT22;20784;51.332;12.410;2023-03-14T01:23:58;11.70;99.90
34542;DHT22;20784;51.332;12.410;2023-03-14T01:26:26;11.80;99.90
34542;DHT22;20784;51.332;12.410;2023-03-14T01:28:55;11.80;99.90
34542;DHT22;20784;51.332;12.410;2023-03-14T01:31:21;11.90;99.90
34542;DHT22;20784;51.332;12.410;2023-03-14T01:33:57;11.80;99.90
34542;DHT22;20784;51.332;12.410;2023-03-14T01:36:23;11.90;99.90
34542;DHT22;20784;51.332;12.410;2023-03-14T01:38:58;11.90;99.90
34542;DHT22;20784;51.332;12.410;2023-03-14T01:41:28;11.80;99.90
34542;DHT22;20784;51.332;12.410;2023-03-14T01:43:56;11.90;99.90
34542;DHT22;20784;51.332;12.410;2023-03-14T01:46:45;11.90;99.90
34542;DHT22;20784;51.332;12.410;2023-03-14T01:49:25;11.80;99.90
34542;DHT22;20784;51.332;12.410;2023-03-14T01:52:37;11.80;99.90
34542;DHT22;20784;51.332;12.410;2023-03-14T01:55:12;11.80;99.90
34542;DHT22;20784;51.332;12.410;2023-03-14T01:57:46;11.90;99.90
34542;DHT22;20784;51.332;12.410;2023-03-14T02:00:21;11.80;99.90
34542;DHT22;20784;51.332;12.410;2023-03-14T02:02:52;11.80;99.90
34542;DHT22;20784;51.332;12.410;2023-03-14T02:05:29;11.80;99.90
34542;DHT22;20784;51.332;12.410;2023-03-14T02:07:59;11.80;99.90
34542;DHT22;20784;51.332;12.410;2023-03-14T02:10:30;11.70;99.90
34542;DHT22;20784;51.332;12.410;2023-03-14T02:13:00;11.80;99.90
34542;DHT22;20784;51.332;12.410;2023-03-14T02:15:29;11.80;99.90
34542;DHT22;20784;51.332;12.410;2023-03-14T02:17:58;11.80;99.90
34542;DHT22;20784;51.332;12.410;2023-03-14T02:22:54;11.80;99.90
34542;DHT22;20784;51.332;12.410;2023-03-14T02:28:11;11.70;99.90
34542;DHT22;20784;51.332;12.410;2023-03-14T02:30:47;11.70;99.90
34542;DHT22;20784;51.332;12.410;2023-03-14T02:33:16;11.70;99.90
34542;DHT22;20784;51.332;12.410;2023-03-14T02:35:49;11.70;99.90
34542;DHT22;20784;51.332;12.410;2023-03-14T02:38:22;11.80;99.90
34542;DHT22;20784;51.332;12.410;2023-03-14T02:40:50;11.70;99.90
34542;DHT22;20784;51.332;12.410;2023-03-14T02:43:15;11.80;99.90
34542;DHT22;20784;51.332;12.410;2023-03-14T02:45:46;11.80;99.90
34542;DHT22;20784;51.332;12.410;2023-03-14T02:48:19;11.80;99.90
34542;DHT22;20784;51.332;12.410;2023-03-14T02:50:53;11.70;99.90
34542;DHT22;20784;51.332;12.410;2023-03-14T02:53:36;11.80;99.90
34542;DHT22;20784;51.332;12.410;2023-03-14T02:56:05;11.70;99.90
34542;DHT22;20784;51.332;12.410;2023-03-14T02:58:35;11.70;99.90
34542;DHT22;20784;51.332;12.410;2023-03-14T03:01:03;11.70;99.90
34542;DHT22;20784;51.332;12.410;2023-03-14T03:03:29;11.70;99.90
34542;DHT22;20784;51.332;12.410;2023-03-14T03:05:56;11.70;99.90
34542;DHT22;20784;51.332;12.410;2023-03-14T03:08:26;11.70;99.90
34542;DHT22;20784;51.332;12.410;2023-03-14T03:11:08;11.70;99.90
34542;DHT22;20784;51.332;12.410;2023-03-14T03:13:39;11.70;99.90
34542;DHT22;20784;51.332;12.410;2023-03-14T03:16:14;11.70;99.90
34542;DHT22;20784;51.332;12.410;2023-03-14T03:18:40;11.70;99.90
34542;DHT22;20784;51.332;12.410;2023-03-14T03:21:06;11.70;99.90
34542;DHT22;20784;51.332;12.410;2023-03-14T03:23:34;11.80;99.90
34542;DHT22;20784;51.332;12.410;2023-03-14T03:26:00;11.80;99.90
34542;DHT22;20784;51.332;12.410;2023-03-14T03:28:25;11.80;99.90
34542;DHT22;20784;51.332;12.410;2023-03-14T03:30:51;11.80;99.90
34542;DHT22;20784;51.332;12.410;2023-03-14T03:33:19;11.80;99.90
34542;DHT22;20784;51.332;12.410;2023-03-14T03:35:49;11.80;99.90
34542;DHT22;20784;51.332;12.410;2023-03-14T03:38:15;11.90;99.90
34542;DHT22;20784;51.332;12.410;2023-03-14T03:40:41;11.90;99.90
34542;DHT22;20784;51.332;12.410;2023-03-14T03:43:14;11.90;99.90
34542;DHT22;20784;51.332;12.410;2023-03-14T03:45:40;11.90;99.90
34542;DHT22;20784;51.332;12.410;2023-03-14T03:48:06;11.90;99.90
34542;DHT22;20784;51.332;12.410;2023-03-14T03:50:44;11.90;99.90
34542;DHT22;20784;51.332;12.410;2023-03-14T03:53:12;11.80;99.90
34542;DHT22;20784;51.332;12.410;2023-03-14T03:55:41;11.90;99.90
34542;DHT22;20784;51.332;12.410;2023-03-14T03:58:12;11.90;99.90
34542;DHT22;20784;51.332;12.410;2023-03-14T04:00:40;11.80;99.90
34542;DHT22;20784;51.332;12.410;2023-03-14T04:03:10;11.80;99.90
34542;DHT22;20784;51.332;12.410;2023-03-14T04:05:36;11.80;99.90
34542;DHT22;20784;51.332;12.410;2023-03-14T04:08:03;11.80;99.90
34542;DHT22;20784;51.332;12.410;2023-03-14T04:10:29;11.80;99.90
34542;DHT22;20784;51.332;12.410;2023-03-14T04:12:55;11.80;99.90
34542;DHT22;20784;51.332;12.410;2023-03-14T04:15:23;11.80;99.90
34542;DHT22;20784;51.332;12.410;2023-03-14T04:17:51;11.80;99.90
34542;DHT22;20784;51.332;12.410;2023-03-14T04:20:17;11.70;99.90
34542;DHT22;20784;51.332;12.410;2023-03-14T04:22:45;11.80;99.90
34542;DHT22;20784;51.332;12.410;2023-03-14T04:25:11;11.70;99.90
34542;DHT22;20784;51.332;12.410;2023-03-14T04:27:36;11.80;99.90
34542;DHT22;20784;51.332;12.410;2023-03-14T04:30:05;11.70;99.90
34542;DHT22;20784;51.332;12.410;2023-03-14T04:32:42;11.70;99.90
34542;DHT22;20784;51.332;12.410;2023-03-14T04:35:10;11.70;99.90
34542;DHT22;20784;51.332;12.410;2023-03-14T04:37:36;11.70;99.90
34542;DHT22;20784;51.332;12.410;2023-03-14T04:40:04;11.70;99.90
34542;DHT22;20784;51.332;12.410;2023-03-14T04:42:32;11.80;99.90
34542;DHT22;20784;51.332;12.410;2023-03-14T04:44:57;11.80;99.90
34542;DHT22;20784;51.332;12.410;2023-03-14T04:47:23;11.80;99.90
34542;DHT22;20784;51.332;12.410;2023-03-14T04:49:49;11.80;99.90
34542;DHT22;20784;51.332;12.410;2023-03-14T04:52:14;11.70;99.90
34542;DHT22;20784;51.332;12.410;2023-03-14T04:54:40;11.70;99.90
34542;DHT22;20784;51.332;12.410;2023-03-14T04:57:06;11.70;99.90
34542;DHT22;20784;51.332;12.410;2023-03-14T04:59:34;11.60;99.90
34542;DHT22;20784;51.332;12.410;2023-03-14T05:01:59;11.70;99.90
34542;DHT22;20784;51.332;12.410;2023-03-14T05:04:25;11.70;99.90
34542;DHT22;20784;51.332;12.410;2023-03-14T05:06:51;11.70;99.90
34542;DHT22;20784;51.332;12.410;2023-03-14T05:09:19;11.70;99.90
34542;DHT22;20784;51.332;12.410;2023-03-14T05:11:48;11.70;99.90
34542;DHT22;20784;51.332;12.410;2023-03-14T05:14:14;11.70;99.90
34542;DHT22;20784;51.332;12.410;2023-03-14T05:16:51;11.70;99.90
34542;DHT22;20784;51.332;12.410;2023-03-14T05:19:17;11.70;99.90
34542;DHT22;20784;51.332;12.410;2023-03-14T05:22:02;11.60;99.90
34542;DHT22;20784;51.332;12.410;2023-03-14T05:24:28;11.60;99.90
34542;DHT22;20784;51.332;12.410;2023-03-14T05:26:57;11.50;99.90
34542;DHT22;20784;51.332;12.410;2023-03-14T05:29:22;11.50;99.90
34542;DHT22;20784;51.332;12.410;2023-03-14T05:31:50;11.60;99.90
34542;DHT22;20784;51.332;12.410;2023-03-14T05:34:16;11.50;99.90
34542;DHT22;20784;51.332;12.410;2023-03-14T05:36:46;11.50;99.90
34542;DHT22;20784;51.332;12.410;2023-03-14T05:39:11;11.50;99.90
34542;DHT22;20784;51.332;12.410;2023-03-14T05:41:43;11.50;99.90
34542;DHT22;20784;51.332;12.410;2023-03-14T05:44:17;11.50;99.90
34542;DHT22;20784;51.332;12.410;2023-03-14T05:46:43;11.50;99.90
34542;DHT22;20784;51.332;12.410;2023-03-14T05:49:49;11.50;99.90
34542;DHT22;20784;51.332;12.410;2023-03-14T05:52:26;11.40;99.90
34542;DHT22;20784;51.332;12.410;2023-03-14T05:55:15;11.50;99.90
34542;DHT22;20784;51.332;12.410;2023-03-14T05:57:53;11.50;99.90
34542;DHT22;20784;51.332;12.410;2023-03-14T06:00:27;11.40;99.90
34542;DHT22;20784;51.332;12.410;2023-03-14T06:02:53;11.50;99.90
34542;DHT22;20784;51.332;12.410;2023-03-14T06:05:54;11.60;99.90
34542;DHT22;20784;51.332;12.410;2023-03-14T06:08:28;11.60;99.90
34542;DHT22;20784;51.332;12.410;2023-03-14T06:11:17;11.50;99.90
34542;DHT22;20784;51.332;12.410;2023-03-14T06:13:54;11.60;99.90
34542;DHT22;20784;51.332;12.410;2023-03-14T06:16:26;11.60;99.90
34542;DHT22;20784;51.332;12.410;2023-03-14T06:19:14;11.70;99.90
34542;DHT22;20784;51.332;12.410;2023-03-14T06:22:03;11.70;99.90
34542;DHT22;20784;51.332;12.410;2023-03-14T06:24:37;11.70;99.90
34542;DHT22;20784;51.332;12.410;2023-03-14T06:27:03;11.70;99.90
34542;DHT22;20784;51.332;12.410;2023-03-14T06:29:31;11.70;99.90
34542;DHT22;20784;51.332;12.410;2023-03-14T06:31:57;11.70;99.90
34542;DHT22;20784;51.332;12.410;2023-03-14T06:34:22;11.70;99.90
34542;DHT22;20784;51.332;12.410;2023-03-14T06:36:48;11.60;99.90
34542;DHT22;20784;51.332;12.410;2023-03-14T06:39:14;11.60;99.90
34542;DHT22;20784;51.332;12.410;2023-03-14T06:41:39;11.60;99.90
34542;DHT22;20784;51.332;12.410;2023-03-14T06:44:05;11.60;99.90
34542;DHT22;20784;51.332;12.410;2023-03-14T06:46:31;11.60;99.90
34542;DHT22;20784;51.332;12.410;2023-03-14T06:49:06;11.60;99.90
34542;DHT22;20784;51.332;12.410;2023-03-14T06:51:31;11.60;99.90
34542;DHT22;20784;51.332;12.410;2023-03-14T06:53:57;11.60;99.90
34542;DHT22;20784;51.332;12.410;2023-03-14T06:56:27;11.60;99.90
34542;DHT22;20784;51.332;12.410;2023-03-14T06:58:53;11.60;99.90
34542;DHT22;20784;51.332;12.410;2023-03-14T07:01:30;11.70;99.90
34542;DHT22;20784;51.332;12.410;2023-03-14T07:04:00;11.70;99.90
34542;DHT22;20784;51.332;12.410;2023-03-14T07:06:31;11.70;99.90
34542;DHT22;20784;51.332;12.410;2023-03-14T07:08:59;11.80;99.90
34542;DHT22;20784;51.332;12.410;2023-03-14T07:11:42;11.80;99.90
34542;DHT22;20784;51.332;12.410;2023-03-14T07:17:07;11.90;99.90
34542;DHT22;20784;51.332;12.410;2023-03-14T07:19:36;11.90;99.90
34542;DHT22;20784;51.332;12.410;2023-03-14T07:22:08;12.00;99.90
34542;DHT22;20784;51.332;12.410;2023-03-14T07:24:37;12.00;99.90
34542;DHT22;20784;51.332;12.410;2023-03-14T07:27:11;12.10;99.90
34542;DHT22;20784;51.332;12.410;2023-03-14T07:29:37;12.00;99.90
34542;DHT22;20784;51.332;12.410;2023-03-14T07:32:14;12.10;99.90
34542;DHT22;20784;51.332;12.410;2023-03-14T07:35:05;12.20;99.90
34542;DHT22;20784;51.332;12.410;2023-03-14T07:37:35;12.20;99.90
34542;DHT22;20784;51.332;12.410;2023-03-14T07:40:27;12.30;99.90
34542;DHT22;20784;51.332;12.410;2023-03-14T07:43:06;12.30;99.90
34542;DHT22;20784;51.332;12.410;2023-03-14T07:45:45;12.40;99.90
34542;DHT22;20784;51.332;12.410;2023-03-14T07:48:20;12.50;99.90
34542;DHT22;20784;51.332;12.410;2023-03-14T08:00:22;12.90;99.90
34542;DHT22;20784;51.332;12.410;2023-03-14T08:03:22;13.00;99.90
34542;DHT22;20784;51.332;12.410;2023-03-14T08:06:22;13.10;99.90
34542;DHT22;20784;51.332;12.410;2023-03-14T08:09:49;13.10;99.90
34542;DHT22;20784;51.332;12.410;2023-03-14T08:12:23;13.20;99.90
34542;DHT22;20784;51.332;12.410;2023-03-14T08:14:56;13.20;99.90
34542;DHT22;20784;51.332;12.410;2023-03-14T08:17:44;13.30;99.90
34542;DHT22;20784;51.332;12.410;2023-03-14T08:20:33;13.40;99.90
34542;DHT22;20784;51.332;12.410;2023-03-14T08:23:02;14.00;99.90
34542;DHT22;20784;51.332;12.410;2023-03-14T08:28:35;14.50;99.90
34542;DHT22;20784;51.332;12.410;2023-03-14T08:33:53;14.00;99.90
34542;DHT22;20784;51.332;12.410;2023-03-14T08:36:30;14.00;99.90
34542;DHT22;20784;51.332;12.410;2023-03-14T08:39:07;14.00;99.90
34542;DHT22;20784;51.332;12.410;2023-03-14T08:41:49;13.90;99.90
34542;DHT22;20784;51.332;12.410;2023-03-14T08:44:15;13.90;99.90
34542;DHT22;20784;51.332;12.410;2023-03-14T08:47:01;13.80;99.90
34542;DHT22;20784;51.332;12.410;2023-03-14T08:49:27;13.60;99.90
34542;DHT22;20784;51.332;12.410;2023-03-14T08:51:53;13.50;99.90
34542;DHT22;20784;51.332;12.410;2023-03-14T08:54:19;13.50;99.90
34542;DHT22;20784;51.332;12.410;2023-03-14T08:56:50;13.50;99.90
34542;DHT22;20784;51.332;12.410;2023-03-14T08:59:37;13.40;99.90
34542;DHT22;20784;51.332;12.410;2023-03-14T09:02:02;13.40;99.90
34542;DHT22;20784;51.332;12.410;2023-03-14T09:04:34;13.50;99.90
34542;DHT22;20784;51.332;12.410;2023-03-14T09:07:02;13.60;99.90
34542;DHT22;20784;51.332;12.410;2023-03-14T09:09:40;13.50;99.90
34542;DHT22;20784;51.332;12.410;2023-03-14T09:12:29;13.50;99.90
34542;DHT22;20784;51.332;12.410;2023-03-14T09:14:58;13.50;99.90
34542;DHT22;20784;51.332;12.410;2023-03-14T09:17:27;13.60;99.90
34542;DHT22;20784;51.332;12.410;2023-03-14T09:20:05;13.60;99.90
34542;DHT22;20784;51.332;12.410;2023-03-14T09:22:41;13.50;99.90
34542;DHT22;20784;51.332;12.410;2023-03-14T09:25:17;13.50;99.90
34542;DHT22;20784;51.332;12.410;2023-03-14T09:27:50;13.60;99.90
34542;DHT22;20784;51.332;12.410;2023-03-14T09:30:39;13.60;99.90
34542;DHT22;20784;51.332;12.410;2023-03-14T09:33:26;13.60;99.90
34542;DHT22;20784;51.332;12.410;2023-03-14T09:36:00;13.60;99.90
34542;DHT22;20784;51.332;12.410;2023-03-14T09:38:49;13.60;99.90
34542;DHT22;20784;51.332;12.410;2023-03-14T09:41:31;13.60;99.90
34542;DHT22;20784;51.332;12.410;2023-03-14T09:44:27;13.60;99.90
34542;DHT22;20784;51.332;12.410;2023-03-14T09:47:06;13.50;99.90
34542;DHT22;20784;51.332;12.410;2023-03-14T09:49:38;13.50;99.90
34542;DHT22;20784;51.332;12.410;2023-03-14T09:52:31;13.60;99.90
34542;DHT22;20784;51.332;12.410;2023-03-14T09:55:04;13.60;99.90
34542;DHT22;20784;51.332;12.410;2023-03-14T09:57:43;13.60;99.90
34542;DHT22;20784;51.332;12.410;2023-03-14T10:00:20;13.60;99.90
34542;DHT22;20784;51.332;12.410;2023-03-14T10:02:57;13.70;99.90
34542;DHT22;20784;51.332;12.410;2023-03-14T10:05:30;13.60;99.90
34542;DHT22;20784;51.332;12.410;2023-03-14T10:07:56;13.70;99.90
34542;DHT22;20784;51.332;12.410;2023-03-14T10:10:35;13.70;99.90
34542;DHT22;20784;51.332;12.410;2023-03-14T10:14:15;13.60;99.90
34542;DHT22;20784;51.332;12.410;2023-03-14T10:17:07;13.60;99.90
34542;DHT22;20784;51.332;12.410;2023-03-14T10:19:54;13.70;99.90
34542;DHT22;20784;51.332;12.410;2023-03-14T10:22:33;13.80;99.90
34542;DHT22;20784;51.332;12.410;2023-03-14T10:25:29;13.70;99.90
34542;DHT22;20784;51.332;12.410;2023-03-14T10:28:10;13.70;99.90
34542;DHT22;20784;51.332;12.410;2023-03-14T10:30:52;13.80;99.90
34542;DHT22;20784;51.332;12.410;2023-03-14T10:33:41;13.80;99.90
34542;DHT22;20784;51.332;12.410;2023-03-14T10:36:33;13.80;99.90
34542;DHT22;20784;51.332;12.410;2023-03-14T10:42:39;13.60;99.90
34542;DHT22;20784;51.332;12.410;2023-03-14T10:45:38;13.70;99.90
34542;DHT22;20784;51.332;12.410;2023-03-14T10:48:22;13.80;99.90
34542;DHT22;20784;51.332;12.410;2023-03-14T10:51:40;13.90;99.90
34542;DHT22;20784;51.332;12.410;2023-03-14T10:57:24;14.00;99.90
34542;DHT22;20784;51.332;12.410;2023-03-14T10:59:53;13.90;99.90
34542;DHT22;20784;51.332;12.410;2023-03-14T11:05:28;14.20;99.90
34542;DHT22;20784;51.332;12.410;2023-03-14T11:08:25;14.10;99.90
34542;DHT22;20784;51.332;12.410;2023-03-14T11:11:39;14.00;99.90
34542;DHT22;20784;51.332;12.410;2023-03-14T11:14:41;13.90;99.90
34542;DHT22;20784;51.332;12.410;2023-03-14T11:17:21;13.80;99.90
34542;DHT22;20784;51.332;12.410;2023-03-14T11:22:41;13.60;99.90
34542;DHT22;20784;51.332;12.410;2023-03-14T11:25:21;13.50;99.90
34542;DHT22;20784;51.332;12.410;2023-03-14T11:28:08;13.50;99.90
34542;DHT22;20784;51.332;12.410;2023-03-14T11:30:44;13.50;99.90
34542;DHT22;20784;51.332;12.410;2023-03-14T11:33:21;13.60;99.90
34542;DHT22;20784;51.332;12.410;2023-03-14T11:36:15;13.70;99.90
34542;DHT22;20784;51.332;12.410;2023-03-14T11:38:49;13.70;99.90
34542;DHT22;20784;51.332;12.410;2023-03-14T11:41:47;13.70;99.90
34542;DHT22;20784;51.332;12.410;2023-03-14T11:44:44;13.90;99.90
34542;DHT22;20784;51.332;12.410;2023-03-14T11:49:50;14.10;99.90
34542;DHT22;20784;51.332;12.410;2023-03-14T11:52:41;14.10;99.90
34542;DHT22;20784;51.332;12.410;2023-03-14T11:55:17;14.30;99.90
34542;DHT22;20784;51.332;12.410;2023-03-14T11:58:15;14.50;99.90
34542;DHT22;20784;51.332;12.410;2023-03-14T12:00:42;14.70;99.90
34542;DHT22;20784;51.332;12.410;2023-03-14T12:03:47;14.70;99.90
34542;DHT22;20784;51.332;12.410;2023-03-14T12:06:40;14.80;99.90
34542;DHT22;20784;51.332;12.410;2023-03-14T12:09:11;14.70;99.90
34542;DHT22;20784;51.332;12.410;2023-03-14T12:15:04;14.90;99.90
34542;DHT22;20784;51.332;12.410;2023-03-14T12:17:59;14.90;99.90
34542;DHT22;20784;51.332;12.410;2023-03-14T12:27:03;14.80;99.90
34542;DHT22;20784;51.332;12.410;2023-03-14T12:36:02;14.10;99.90
34542;DHT22;20784;51.332;12.410;2023-03-14T12:41:40;14.20;99.90
34542;DHT22;20784;51.332;12.410;2023-03-14T12:47:52;14.70;99.90
34542;DHT22;20784;51.332;12.410;2023-03-14T12:56:27;15.00;99.90
34542;DHT22;20784;51.332;12.410;2023-03-14T13:02:22;15.00;99.90
34542;DHT22;20784;51.332;12.410;2023-03-14T13:05:18;15.10;99.90
34542;DHT22;20784;51.332;12.410;2023-03-14T13:10:51;14.90;99.90
34542;DHT22;20784;51.332;12.410;2023-03-14T13:13:24;14.80;99.90
34542;DHT22;20784;51.332;12.410;2023-03-14T13:16:09;14.70;99.90
34542;DHT22;20784;51.332;12.410;2023-03-14T13:18:49;14.60;99.90
34542;DHT22;20784;51.332;12.410;2023-03-14T13:21:24;14.60;99.90
34542;DHT22;20784;51.332;12.410;2023-03-14T13:24:26;14.80;99.90
34542;DHT22;20784;51.332;12.410;2023-03-14T13:26:59;15.20;99.90
34542;DHT22;20784;51.332;12.410;2023-03-14T13:29:36;15.20;99.90
34542;DHT22;20784;51.332;12.410;2023-03-14T13:32:21;15.10;99.90
34542;DHT22;20784;51.332;12.410;2023-03-14T13:35:01;15.00;99.90
34542;DHT22;20784;51.332;12.410;2023-03-14T13:38:14;15.10;99.90
34542;DHT22;20784;51.332;12.410;2023-03-14T13:40:46;15.30;99.90
34542;DHT22;20784;51.332;12.410;2023-03-14T13:46:14;15.30;99.90
34542;DHT22;20784;51.332;12.410;2023-03-14T13:48:52;15.60;99.90
34542;DHT22;20784;51.332;12.410;2023-03-14T13:51:28;15.70;99.90
34542;DHT22;20784;51.332;12.410;2023-03-14T13:54:03;15.80;99.90
34542;DHT22;20784;51.332;12.410;2023-03-14T13:56:40;15.70;99.90
34542;DHT22;20784;51.332;12.410;2023-03-14T13:59:25;15.80;99.90
34542;DHT22;20784;51.332;12.410;2023-03-14T14:05:19;16.00;99.90
34542;DHT22;20784;51.332;12.410;2023-03-14T14:07:55;16.30;99.90
34542;DHT22;20784;51.332;12.410;2023-03-14T14:10:31;16.60;99.90
34542;DHT22;20784;51.332;12.410;2023-03-14T14:13:05;16.50;99.90
34542;DHT22;20784;51.332;12.410;2023-03-14T14:18:44;16.40;99.90
34542;DHT22;20784;51.332;12.410;2023-03-14T14:21:29;16.00;99.90
34542;DHT22;20784;51.332;12.410;2023-03-14T14:24:09;15.80;99.90
34542;DHT22;20784;51.332;12.410;2023-03-14T14:27:23;15.80;99.90
34542;DHT22;20784;51.332;12.410;2023-03-14T14:30:36;15.70;99.90
34542;DHT22;20784;51.332;12.410;2023-03-14T14:33:19;15.60;99.90
34542;DHT22;20784;51.332;12.410;2023-03-14T14:35:58;15.20;99.90
34542;DHT22;20784;51.332;12.410;2023-03-14T14:38:26;15.20;99.90
34542;DHT22;20784;51.332;12.410;2023-03-14T14:40:56;15.10;99.90
34542;DHT22;20784;51.332;12.410;2023-03-14T14:43:27;15.00;99.90
34542;DHT22;20784;51.332;12.410;2023-03-14T14:45:57;15.00;99.90
34542;DHT22;20784;51.332;12.410;2023-03-14T14:48:29;15.00;99.90
34542;DHT22;20784;51.332;12.410;2023-03-14T14:51:06;15.00;99.90
34542;DHT22;20784;51.332;12.410;2023-03-14T14:53:43;14.90;99.90
34542;DHT22;20784;51.332;12.410;2023-03-14T14:56:21;14.90;99.90
34542;DHT22;20784;51.332;12.410;2023-03-14T14:59:00;14.70;99.90
34542;DHT22;20784;51.332;12.410;2023-03-14T15:01:33;14.60;99.90
34542;DHT22;20784;51.332;12.410;2023-03-14T15:04:00;14.50;99.90
34542;DHT22;20784;51.332;12.410;2023-03-14T15:06:28;14.20;99.90
34542;DHT22;20784;51.332;12.410;2023-03-14T15:08:55;13.80;99.90
34542;DHT22;20784;51.332;12.410;2023-03-14T15:11:22;13.50;99.90
34542;DHT22;20784;51.332;12.410;2023-03-14T15:13:56;13.30;99.90
34542;DHT22;20784;51.332;12.410;2023-03-14T15:16:25;13.10;99.90
34542;DHT22;20784;51.332;12.410;2023-03-14T15:18:55;13.20;99.90
34542;DHT22;20784;51.332;12.410;2023-03-14T15:21:23;12.70;99.90
34542;DHT22;20784;51.332;12.410;2023-03-14T15:23:49;11.90;99.90
34542;DHT22;20784;51.332;12.410;2023-03-14T15:26:17;11.20;99.90
34542;DHT22;20784;51.332;12.410;2023-03-14T15:28:44;10.50;99.90
34542;DHT22;20784;51.332;12.410;2023-03-14T15:31:11;10.00;99.90
34542;DHT22;20784;51.332;12.410;2023-03-14T15:33:45;9.60;99.90
34542;DHT22;20784;51.332;12.410;2023-03-14T15:38:48;9.30;99.90
34542;DHT22;20784;51.332;12.410;2023-03-14T15:41:14;9.30;99.90
34542;DHT22;20784;51.332;12.410;2023-03-14T15:43:41;9.20;99.90
34542;DHT22;20784;51.332;12.410;2023-03-14T15:46:09;8.80;99.90
34542;DHT22;20784;51.332;12.410;2023-03-14T15:48:38;8.80;99.90
34542;DHT22;20784;51.332;12.410;2023-03-14T15:51:06;8.50;99.90
34542;DHT22;20784;51.332;12.410;2023-03-14T15:53:32;8.20;99.90
34542;DHT22;20784;51.332;12.410;2023-03-14T15:55:58;8.00;99.90
34542;DHT22;20784;51.332;12.410;2023-03-14T15:58:26;7.80;99.90
34542;DHT22;20784;51.332;12.410;2023-03-14T16:00:52;7.70;99.90
34542;DHT22;20784;51.332;12.410;2023-03-14T16:03:18;7.80;99.90
34542;DHT22;20784;51.332;12.410;2023-03-14T16:05:44;7.60;99.90
34542;DHT22;20784;51.332;12.410;2023-03-14T16:08:09;7.30;99.90
34542;DHT22;20784;51.332;12.410;2023-03-14T16:10:38;7.20;99.90
34542;DHT22;20784;51.332;12.410;2023-03-14T16:13:11;7.00;99.90
34542;DHT22;20784;51.332;12.410;2023-03-14T16:15:40;6.90;99.90
34542;DHT22;20784;51.332;12.410;2023-03-14T16:18:06;6.90;99.90
34542;DHT22;20784;51.332;12.410;2023-03-14T16:20:31;6.70;99.90
34542;DHT22;20784;51.332;12.410;2023-03-14T16:22:57;6.70;99.90
34542;DHT22;20784;51.332;12.410;2023-03-14T16:25:23;6.70;99.90
34542;DHT22;20784;51.332;12.410;2023-03-14T16:27:48;6.70;99.90
34542;DHT22;20784;51.332;12.410;2023-03-14T16:30:14;6.70;99.90
34542;DHT22;20784;51.332;12.410;2023-03-14T16:32:45;6.60;99.90
34542;DHT22;20784;51.332;12.410;2023-03-14T16:35:11;6.50;99.90
34542;DHT22;20784;51.332;12.410;2023-03-14T16:37:37;6.40;99.90
34542;DHT22;20784;51.332;12.410;2023-03-14T16:40:02;6.30;99.90
34542;DHT22;20784;51.332;12.410;2023-03-14T16:42:28;6.10;99.90
34542;DHT22;20784;51.332;12.410;2023-03-14T16:44:54;6.10;99.90
34542;DHT22;20784;51.332;12.410;2023-03-14T16:47:28;5.90;99.90
34542;DHT22;20784;51.332;12.410;2023-03-14T16:49:55;5.80;99.90
34542;DHT22;20784;51.332;12.410;2023-03-14T16:52:26;5.60;99.90
34542;DHT22;20784;51.332;12.410;2023-03-14T16:54:52;5.50;99.90
34542;DHT22;20784;51.332;12.410;2023-03-14T16:57:17;5.40;99.90
34542;DHT22;20784;51.332;12.410;2023-03-14T16:59:45;5.30;99.90
34542;DHT22;20784;51.332;12.410;2023-03-14T17:02:15;5.20;99.90
34542;DHT22;20784;51.332;12.410;2023-03-14T17:04:40;5.00;99.90
34542;DHT22;20784;51.332;12.410;2023-03-14T17:07:19;5.00;99.90
34542;DHT22;20784;51.332;12.410;2023-03-14T17:09:47;5.10;99.90
34542;DHT22;20784;51.332;12.410;2023-03-14T17:12:15;5.10;99.90
34542;DHT22;20784;51.332;12.410;2023-03-14T17:14:41;5.10;99.90
34542;DHT22;20784;51.332;12.410;2023-03-14T17:17:07;5.10;99.90
34542;DHT22;20784;51.332;12.410;2023-03-14T17:19:35;5.10;99.90
34542;DHT22;20784;51.332;12.410;2023-03-14T17:22:01;5.20;99.90
34542;DHT22;20784;51.332;12.410;2023-03-14T17:24:29;5.30;99.90
34542;DHT22;20784;51.332;12.410;2023-03-14T17:26:54;5.30;99.90
34542;DHT22;20784;51.332;12.410;2023-03-14T17:29:20;5.40;99.90
34542;DHT22;20784;51.332;12.410;2023-03-14T17:31:46;5.40;99.90